Time;durP1;ratioP1;P1;durP2;ratioP2;P2;SDS_P1;SDS_P2;PMS_P1;PMS_P2;Temp;Humidity;BMP_temperature;BMP_pressure;BME280_temperature;BME280_humidity;BME280_pressure;Samples;Min_cycle;Max_cycle;Signal;HPM_P1;HPM_P2
2021/06/03 00:01:08;;;;;;;11.47;6.80;;;;;;;9.89;100.00;95139.03;10448313;28;20399;-77
2021/06/03 00:06:09;;;;;;;10.38;7.38;;;;;;;9.83;100.00;95148.94;10450126;28;20100;-77
2021/06/03 00:11:12;;;;;;;17.50;8.00;;;;;;;9.78;100.00;95145.41;10451161;28;20020;-77
2021/06/03 00:16:15;;;;;;;13.27;7.70;;;;;;;9.73;100.00;95146.19;10450730;28;20564;-77
2021/06/03 00:21:15;;;;;;;13.60;7.25;;;;;;;9.61;100.00;95146.34;10450778;28;20372;-77
2021/06/03 00:26:16;;;;;;;13.10;7.68;;;;;;;9.56;100.00;95149.03;10449717;28;20049;-77
2021/06/03 00:31:16;;;;;;;12.87;7.80;;;;;;;9.42;100.00;95145.97;10450272;28;20093;-77
2021/06/03 00:36:16;;;;;;;12.60;8.30;;;;;;;9.44;100.00;95145.69;10450716;28;20032;-77
2021/06/03 00:41:18;;;;;;;10.68;8.05;;;;;;;9.33;100.00;95148.28;10450672;28;20341;-83
2021/06/03 00:46:19;;;;;;;16.15;8.70;;;;;;;9.31;100.00;95158.47;10452535;28;20017;-81
2021/06/03 00:51:20;;;;;;;12.45;7.10;;;;;;;9.24;100.00;95161.34;10452438;28;20453;-82
2021/06/03 00:56:21;;;;;;;24.42;10.38;;;;;;;9.18;100.00;95164.22;10452383;28;20029;-82
2021/06/03 01:01:21;;;;;;;9.63;6.90;;;;;;;9.20;100.00;95154.06;10451999;28;20026;-82
2021/06/03 01:06:22;;;;;;;11.23;6.13;;;;;;;9.23;100.00;95156.25;10450948;28;20024;-81
2021/06/03 01:11:48;;;;;;;10.27;6.40;;;;;;;9.20;100.00;95152.19;10441499;28;20040;-82
2021/06/03 01:16:51;;;;;;;9.70;5.82;;;;;;;9.15;100.00;95151.34;10452355;28;20032;-82
2021/06/03 01:22:07;;;;;;;7.72;4.93;;;;;;;9.24;100.00;95160.56;10453392;28;20029;-82
2021/06/03 01:27:11;;;;;;;7.90;4.25;;;;;;;9.26;100.00;95163.78;10446992;28;20069;-81
2021/06/03 01:32:12;;;;;;;12.65;7.50;;;;;;;9.19;100.00;95163.16;10457677;28;20041;-81
2021/06/03 01:37:13;;;;;;;6.10;4.38;;;;;;;9.15;100.00;95165.53;10457924;28;20037;-80
2021/06/03 01:42:16;;;;;;;6.20;4.63;;;;;;;9.02;100.00;95163.28;10458227;28;20029;-81
2021/06/03 01:47:17;;;;;;;9.35;5.20;;;;;;;9.05;100.00;95152.84;10458890;28;20159;-81
2021/06/03 01:52:18;;;;;;;7.55;4.35;;;;;;;9.06;100.00;95159.81;10458136;28;20101;-81
2021/06/03 01:57:20;;;;;;;8.07;5.30;;;;;;;9.13;100.00;95161.53;10456688;28;20412;-81
2021/06/03 02:02:26;;;;;;;7.32;5.57;;;;;;;9.08;100.00;95164.94;10458025;28;20159;-82
2021/06/03 02:07:26;;;;;;;13.38;5.55;;;;;;;8.98;100.00;95160.28;10457479;28;20035;-84
2021/06/03 02:12:32;;;;;;;14.37;5.80;;;;;;;9.00;100.00;95166.22;10456378;28;20027;-84
2021/06/03 02:17:42;;;;;;;11.05;5.07;;;;;;;8.97;100.00;95163.22;10457286;28;20036;-84
2021/06/03 02:22:47;;;;;;;9.32;5.97;;;;;;;8.91;100.00;95173.06;10456422;28;20033;-84
2021/06/03 02:27:48;;;;;;;10.90;6.75;;;;;;;8.95;100.00;95170.72;10456833;28;20049;-84
2021/06/03 02:32:51;;;;;;;8.38;5.65;;;;;;;9.02;100.00;95164.06;10455476;28;20017;-84
2021/06/03 02:37:52;;;;;;;10.05;5.35;;;;;;;8.96;100.00;95170.47;10456522;28;20495;-84
2021/06/03 02:42:52;;;;;;;12.00;5.05;;;;;;;8.95;100.00;95178.75;10456198;28;20021;-84
2021/06/03 02:47:54;;;;;;;9.65;7.15;;;;;;;8.95;100.00;95174.19;10455899;28;20105;-84
2021/06/03 02:52:57;;;;;;;6.40;4.63;;;;;;;8.85;100.00;95184.81;10454592;28;20017;-84
2021/06/03 02:57:58;;;;;;;6.30;4.63;;;;;;;8.74;100.00;95193.81;10454477;28;20067;-84
2021/06/03 03:03:00;;;;;;;7.47;5.38;;;;;;;8.36;100.00;95198.91;10453809;28;20055;-83
2021/06/03 03:08:01;;;;;;;12.45;6.20;;;;;;;8.20;100.00;95184.50;10455347;28;20105;-83
2021/06/03 03:13:01;;;;;;;18.20;8.68;;;;;;;7.97;100.00;95194.34;10453492;28;20112;-84
2021/06/03 03:18:03;;;;;;;25.15;8.90;;;;;;;7.93;100.00;95201.25;10453273;28;20032;-83
2021/06/03 03:23:05;;;;;;;10.55;6.90;;;;;;;7.96;100.00;95202.63;10453490;28;20033;-83
2021/06/03 03:28:08;;;;;;;15.45;8.30;;;;;;;8.09;100.00;95204.16;10451778;28;20045;-83
2021/06/03 03:33:10;;;;;;;11.85;6.93;;;;;;;8.21;100.00;95202.19;10449387;28;20025;-84
2021/06/03 03:38:14;;;;;;;10.57;6.82;;;;;;;8.10;100.00;95198.56;10450062;28;20023;-83
2021/06/03 03:43:14;;;;;;;9.38;6.82;;;;;;;8.10;100.00;95208.47;10453261;28;20104;-83
2021/06/03 03:48:16;;;;;;;12.65;7.22;;;;;;;8.27;100.00;95219.13;10448496;28;20664;-82
2021/06/03 03:53:16;;;;;;;12.30;7.05;;;;;;;8.43;100.00;95214.78;10448611;28;20384;-83
2021/06/03 03:58:16;;;;;;;11.73;7.57;;;;;;;8.49;100.00;95219.19;10450409;28;20035;-82
2021/06/03 04:03:17;;;;;;;11.23;6.90;;;;;;;8.68;100.00;95223.19;10442261;28;20024;-77
2021/06/03 04:08:17;;;;;;;13.30;7.10;;;;;;;8.67;100.00;95221.56;10440920;28;20587;-77
2021/06/03 04:13:18;;;;;;;12.27;6.00;;;;;;;9.01;100.00;95229.47;10440467;28;20694;-78
2021/06/03 04:18:18;;;;;;;7.95;5.72;;;;;;;9.25;100.00;95226.50;10441528;28;20332;-77
2021/06/03 04:23:18;;;;;;;9.57;5.47;;;;;;;9.75;100.00;95229.94;10439735;28;20769;-77
2021/06/03 04:28:19;;;;;;;16.70;5.63;;;;;;;10.22;100.00;95237.28;10402927;28;20300;-77
2021/06/03 04:33:22;;;;;;;10.67;6.33;;;;;;;10.67;100.00;95232.47;10401522;28;20276;-77
2021/06/03 04:38:23;;;;;;;11.18;5.97;;;;;;;11.19;100.00;95238.88;10398325;28;20031;-76
2021/06/03 04:43:23;;;;;;;15.07;7.00;;;;;;;11.77;100.00;95232.53;10399619;28;20032;-77
2021/06/03 04:48:24;;;;;;;12.77;5.87;;;;;;;12.30;100.00;95235.78;10405800;28;20108;-77
2021/06/03 04:53:24;;;;;;;11.37;5.93;;;;;;;12.76;100.00;95239.47;10408102;28;20027;-76
2021/06/03 04:58:26;;;;;;;11.13;5.37;;;;;;;13.42;100.00;95240.31;10408214;28;20029;-77
2021/06/03 05:03:27;;;;;;;18.58;7.47;;;;;;;14.11;100.00;95243.91;10407053;28;20056;-77
2021/06/03 05:08:27;;;;;;;11.10;5.60;;;;;;;15.00;100.00;95236.56;10407548;28;20427;-77
2021/06/03 05:13:30;;;;;;;16.37;7.00;;;;;;;15.57;100.00;95228.50;10405755;28;20264;-77
2021/06/03 05:18:31;;;;;;;13.32;6.13;;;;;;;16.40;100.00;95228.09;10406850;28;20448;-77
2021/06/03 05:23:32;;;;;;;16.87;6.97;;;;;;;16.90;94.47;95222.06;10406669;28;20021;-77
2021/06/03 05:28:32;;;;;;;14.05;6.97;;;;;;;17.63;90.10;95232.25;10406833;28;20524;-77
2021/06/03 05:33:32;;;;;;;21.10;9.27;;;;;;;18.41;81.18;95227.44;10406694;28;20018;-77
2021/06/03 05:38:33;;;;;;;19.70;7.37;;;;;;;19.10;69.88;95233.53;10405851;28;20678;-77
2021/06/03 05:43:33;;;;;;;10.40;4.83;;;;;;;19.87;61.44;95238.69;10406379;28;20051;-77
2021/06/03 05:48:34;;;;;;;10.30;5.40;;;;;;;20.70;61.12;95231.44;10404482;28;20300;-77
2021/06/03 05:53:34;;;;;;;10.57;5.60;;;;;;;21.43;53.47;95241.41;10404603;28;20049;-77
2021/06/03 05:58:34;;;;;;;8.90;4.93;;;;;;;21.82;49.82;95234.78;10403562;28;20102;-77
2021/06/03 06:03:46;;;;;;;16.45;4.43;;;;;;;22.01;48.72;95228.03;10405352;28;20040;-77
2021/06/03 06:08:46;;;;;;;7.30;3.20;;;;;;;22.04;43.00;95232.03;10405293;28;20033;-77
2021/06/03 06:13:48;;;;;;;11.63;3.10;;;;;;;22.73;44.46;95236.09;10404837;28;20025;-77
2021/06/03 06:18:48;;;;;;;14.70;3.00;;;;;;;23.34;40.52;95229.09;10404253;28;20332;-77
2021/06/03 06:23:49;;;;;;;4.60;3.03;;;;;;;22.59;41.94;95222.69;10402864;28;20033;-77
2021/06/03 06:28:51;;;;;;;2.80;2.40;;;;;;;21.51;42.56;95218.69;10404068;28;20110;-77
2021/06/03 06:33:52;;;;;;;2.47;2.00;;;;;;;20.82;45.09;95218.69;10402830;28;20033;-77
2021/06/03 06:38:52;;;;;;;4.30;2.45;;;;;;;22.20;43.44;95230.25;10403766;28;20033;-77
2021/06/03 06:43:53;;;;;;;4.07;2.20;;;;;;;23.06;41.94;95235.22;10403472;28;20456;-75
2021/06/03 06:48:53;;;;;;;3.57;2.40;;;;;;;24.31;38.33;95234.78;10403274;28;20080;-78
2021/06/03 06:53:53;;;;;;;4.40;2.00;;;;;;;25.27;36.21;95220.41;10402998;28;20033;-78
2021/06/03 06:58:54;;;;;;;9.43;2.33;;;;;;;25.00;38.75;95222.88;10403007;28;20025;-77
2021/06/03 07:03:54;;;;;;;4.60;1.70;;;;;;;25.35;35.18;95211.97;10402703;28;20408;-77
2021/06/03 07:08:54;;;;;;;17.75;2.22;;;;;;;25.05;35.23;95223.41;10401278;28;20026;-78
2021/06/03 07:13:55;;;;;;;7.80;2.10;;;;;;;25.40;36.02;95214.47;10403027;28;20075;-77
2021/06/03 07:18:55;;;;;;;5.45;2.15;;;;;;;25.07;34.92;95225.81;10402126;28;20037;-78
2021/06/03 07:23:56;;;;;;;3.13;1.60;;;;;;;25.81;34.71;95216.94;10402014;28;20030;-75
2021/06/03 07:28:56;;;;;;;7.13;2.33;;;;;;;26.69;33.04;95215.63;10403407;28;20448;-78
2021/06/03 07:33:56;;;;;;;5.60;2.07;;;;;;;26.63;31.89;95219.06;10402656;28;20382;-78
2021/06/03 07:38:57;;;;;;;4.13;1.83;;;;;;;27.06;32.95;95220.63;10402771;28;20037;-77
2021/06/03 07:43:58;;;;;;;9.20;1.90;;;;;;;27.53;32.68;95217.88;10402569;28;20024;-78
2021/06/03 07:48:59;;;;;;;2.30;1.47;;;;;;;26.70;32.58;95217.25;10402075;28;20048;-77
2021/06/03 07:54:00;;;;;;;4.85;2.35;;;;;;;26.46;34.66;95220.28;10400798;28;20022;-77
2021/06/03 07:59:00;;;;;;;7.03;1.70;;;;;;;25.08;34.16;95221.91;10401983;28;20056;-77
2021/06/03 08:04:01;;;;;;;5.07;1.60;;;;;;;26.27;32.42;95219.91;10400062;28;20473;-78
2021/06/03 08:09:02;;;;;;;3.47;1.83;;;;;;;27.13;31.06;95211.69;10401621;28;20025;-78
2021/06/03 08:14:03;;;;;;;4.85;1.65;;;;;;;28.27;30.40;95203.53;10401495;28;20465;-78
2021/06/03 08:19:04;;;;;;;12.75;2.58;;;;;;;28.75;30.08;95211.19;10401843;28;20107;-75
2021/06/03 08:24:04;;;;;;;7.68;2.03;;;;;;;27.75;30.85;95230.81;10399087;28;20060;-78
2021/06/03 08:29:05;;;;;;;3.97;1.90;;;;;;;29.09;29.63;95207.56;10400942;28;20055;-78
2021/06/03 08:34:06;;;;;;;4.00;1.63;;;;;;;29.39;26.98;95206.66;10401329;28;20022;-78
2021/06/03 08:39:07;;;;;;;5.72;2.15;;;;;;;29.15;28.63;95215.13;10401153;28;20508;-78
2021/06/03 08:44:09;;;;;;;2.88;1.58;;;;;;;30.36;27.11;95212.78;10400856;28;20026;-75
2021/06/03 08:49:10;;;;;;;3.97;1.70;;;;;;;29.94;26.31;95217.75;10400344;28;20436;-76
2021/06/03 08:54:10;;;;;;;4.78;1.48;;;;;;;30.51;27.54;95216.44;10400972;28;20029;-76
2021/06/03 08:59:11;;;;;;;16.40;2.17;;;;;;;28.29;28.04;95225.25;10401151;28;20029;-76
2021/06/03 09:04:11;;;;;;;6.35;1.30;;;;;;;28.35;28.26;95215.47;10401020;28;20033;-76
2021/06/03 09:09:13;;;;;;;3.38;1.50;;;;;;;28.49;29.37;95223.13;10400904;28;20083;-76
2021/06/03 09:14:16;;;;;;;4.18;1.60;;;;;;;29.78;28.25;95223.56;10400575;28;20109;-76
2021/06/03 09:19:16;;;;;;;4.00;1.42;;;;;;;30.84;26.25;95218.13;10400384;28;20021;-77
2021/06/03 09:24:19;;;;;;;3.23;1.57;;;;;;;31.28;25.86;95224.56;10399043;28;20034;-77
2021/06/03 09:29:27;;;;;;;5.43;1.73;;;;;;;30.77;27.77;95212.56;10400557;28;20056;-77
2021/06/03 09:34:27;;;;;;;3.33;1.48;;;;;;;30.87;27.28;95215.75;10404458;28;20021;-77
2021/06/03 09:39:30;;;;;;;2.83;1.60;;;;;;;30.40;28.38;95208.06;10407617;28;20083;-77
2021/06/03 09:44:38;;;;;;;5.85;1.85;;;;;;;30.43;28.03;95204.53;10407610;28;20029;-77
2021/06/03 09:49:46;;;;;;;3.00;1.40;;;;;;;31.42;25.80;95209.88;10407352;28;20025;-77
2021/06/03 09:54:55;;;;;;;7.57;1.80;;;;;;;32.63;23.51;95201.66;10406858;28;20040;-77
2021/06/03 10:00:11;;;;;;;2.38;1.20;;;;;;;33.61;23.82;95210.19;10406797;28;20033;-77
2021/06/03 10:05:15;;;;;;;0.88;0.85;;;;;;;34.23;24.75;95199.22;10406969;28;20055;-77
2021/06/03 10:10:15;;;;;;;4.38;1.17;;;;;;;34.76;23.24;95199.75;10405852;28;20033;-77
2021/06/03 10:15:19;;;;;;;5.38;1.52;;;;;;;34.54;23.93;95202.84;10404438;28;20492;-77
2021/06/03 10:20:52;;;;;;;2.40;1.27;;;;;;;32.26;24.99;95205.00;10405208;28;20065;-77
2021/06/03 10:26:03;;;;;;;4.30;1.30;;;;;;;32.19;24.10;95203.84;10405160;28;20068;-77
2021/06/03 10:31:12;;;;;;;3.38;1.20;;;;;;;32.54;24.86;95204.91;10405325;28;20033;-77
2021/06/03 10:36:13;;;;;;;3.95;1.90;;;;;;;30.67;26.08;95203.03;10405550;28;20168;-76
2021/06/03 10:41:16;;;;;;;5.60;2.08;;;;;;;32.91;25.88;95205.50;10405001;28;20130;-77
2021/06/03 10:46:17;;;;;;;2.75;0.93;;;;;;;31.17;24.17;95198.75;10404129;28;20025;-77
2021/06/03 10:51:17;;;;;;;3.83;1.67;;;;;;;29.36;28.67;95197.16;10405208;28;20033;-76
2021/06/03 10:56:27;;;;;;;3.30;1.52;;;;;;;30.70;27.44;95195.09;10404706;28;20120;-76
2021/06/03 11:01:30;;;;;;;5.72;2.00;;;;;;;29.90;28.44;95205.84;10404001;28;20515;-76
2021/06/03 11:06:42;;;;;;;4.72;1.45;;;;;;;26.65;31.58;95206.47;10402570;28;20079;-77
2021/06/03 11:11:45;;;;;;;5.57;2.15;;;;;;;24.48;34.66;95203.44;10403856;28;20492;-76
2021/06/03 11:16:51;;;;;;;3.70;2.40;;;;;;;24.08;35.55;95201.56;10403360;28;20409;-76
2021/06/03 11:21:54;;;;;;;9.60;2.10;;;;;;;24.01;36.28;95190.38;10403387;28;20037;-76
2021/06/03 11:26:57;;;;;;;2.38;2.17;;;;;;;23.78;35.46;95199.09;10403252;28;20115;-76
2021/06/03 11:32:03;;;;;;;8.63;2.33;;;;;;;22.89;36.88;95192.38;10402241;28;20032;-76
2021/06/03 11:37:05;;;;;;;9.07;2.90;;;;;;;23.12;39.47;95192.78;10414690;28;20040;-76
2021/06/03 11:42:15;;;;;;;5.50;2.40;;;;;;;23.09;40.12;95176.97;10402463;28;20404;-76
2021/06/03 11:47:15;;;;;;;6.07;2.53;;;;;;;22.94;39.16;95197.66;10402318;28;20496;-77
2021/06/03 11:52:20;;;;;;;3.53;2.40;;;;;;;22.31;39.33;95182.19;10402207;28;20028;-77
2021/06/03 11:57:22;;;;;;;6.43;2.20;;;;;;;22.74;40.24;95190.31;10401670;28;20127;-77
2021/06/03 12:02:34;;;;;;;6.95;2.28;;;;;;;23.50;39.46;95177.09;10406477;28;20108;-76
2021/06/03 12:07:54;;;;;;;3.95;2.10;;;;;;;22.37;41.33;95185.53;10400732;28;20037;-77
2021/06/03 12:12:55;;;;;;;8.57;2.60;;;;;;;22.68;41.61;95178.75;10402254;28;20014;-77
2021/06/03 12:17:58;;;;;;;9.32;2.95;;;;;;;22.36;40.45;95178.47;10401682;28;20044;-77
2021/06/03 12:23:04;;;;;;;5.53;2.47;;;;;;;21.55;40.80;95180.56;10401938;28;20077;-76
2021/06/03 12:28:05;;;;;;;3.25;2.45;;;;;;;21.15;42.59;95182.56;10401552;28;20139;-76
2021/06/03 12:33:10;;;;;;;7.50;3.05;;;;;;;21.76;40.53;95181.38;10400928;28;20029;-77
2021/06/03 12:38:38;;;;;;;8.20;2.70;;;;;;;22.39;41.33;95177.78;10401066;28;20033;-77
2021/06/03 12:43:43;;;;;;;4.93;2.83;;;;;;;23.06;41.05;95182.34;10401487;28;20037;-76
2021/06/03 12:48:43;;;;;;;10.88;2.42;;;;;;;23.21;39.15;95187.16;10401303;28;20821;-76
2021/06/03 12:53:48;;;;;;;4.75;2.42;;;;;;;23.48;40.16;95188.41;10400556;28;20036;-76
2021/06/03 12:58:52;;;;;;;5.53;2.45;;;;;;;23.36;40.38;95180.19;10399414;28;20037;-76
2021/06/03 13:03:57;;;;;;;4.43;2.50;;;;;;;23.67;40.15;95190.53;10400564;28;20048;-76
2021/06/03 13:09:01;;;;;;;2.70;2.03;;;;;;;22.98;41.57;95187.59;10406603;28;20059;-76
2021/06/03 13:14:14;;;;;;;8.50;2.90;;;;;;;22.46;41.17;95185.44;10408094;28;20026;-76
2021/06/03 13:19:23;;;;;;;10.45;2.63;;;;;;;22.45;41.45;95176.44;10408095;28;20528;-76
2021/06/03 13:24:32;;;;;;;5.15;2.25;;;;;;;22.44;41.27;95180.31;10408286;28;20488;-75
2021/06/03 13:29:39;;;;;;;4.32;2.42;;;;;;;22.12;41.02;95192.84;10407551;28;20112;-76
2021/06/03 13:34:47;;;;;;;3.80;1.98;;;;;;;22.22;41.64;95181.47;10407656;28;20517;-77
2021/06/03 13:39:50;;;;;;;8.90;2.10;;;;;;;21.77;43.50;95184.91;10405970;28;20032;-76
2021/06/03 13:44:56;;;;;;;5.57;2.83;;;;;;;21.77;45.50;95190.38;10406727;28;20025;-76
2021/06/03 13:50:32;;;;;;;3.60;2.38;;;;;;;21.31;44.55;95190.97;10407067;28;20087;-77
2021/06/03 13:55:39;;;;;;;5.90;2.13;;;;;;;21.52;43.21;95184.78;10386179;28;20041;-76
2021/06/03 14:00:44;;;;;;;5.10;2.72;;;;;;;21.42;43.40;95190.59;10406601;28;20025;-76
2021/06/03 14:06:00;;;;;;;5.70;2.63;;;;;;;21.39;46.21;95192.06;10417555;28;20609;-77
2021/06/03 14:11:08;;;;;;;9.88;3.20;;;;;;;21.29;46.84;95176.84;10439037;28;20480;-76
2021/06/03 14:16:08;;;;;;;;;;;;;;;21.07;46.56;95190.78;10406300;28;20029;-77
2021/06/03 14:21:09;;;;;;;9.35;2.97;;;;;;;21.12;47.64;95190.59;10409418;28;19913;-77
2021/06/03 14:26:14;;;;;;;3.33;2.45;;;;;;;20.83;48.37;95195.72;10405176;28;20469;-77
2021/06/03 14:31:14;;;;;;;6.43;2.85;;;;;;;20.98;47.12;95197.09;10434270;28;20028;-77
2021/06/03 14:36:15;;;;;;;2.97;2.60;;;;;;;20.92;49.80;95192.94;10436984;28;20025;-77
2021/06/03 14:41:15;;;;;;;4.20;2.63;;;;;;;20.85;50.57;95203.59;10405244;28;20080;-78
2021/06/03 14:46:15;;;;;;;7.68;2.10;;;;;;;20.69;47.63;95203.31;10417256;28;20033;-77
2021/06/03 14:51:16;;;;;;;4.18;2.65;;;;;;;20.45;48.11;95210.09;10430642;28;20087;-77
2021/06/03 14:56:16;;;;;;;5.90;2.83;;;;;;;20.38;51.45;95206.25;10423832;28;20874;-77
2021/06/03 15:01:18;;;;;;;2.93;2.43;;;;;;;20.37;50.20;95202.72;10417092;28;20037;-77
2021/06/03 15:06:18;;;;;;;5.75;2.40;;;;;;;20.13;49.22;95203.22;10404022;28;20457;-77
2021/06/03 15:11:19;;;;;;;5.70;3.17;;;;;;;20.19;51.82;95203.88;10403103;28;20017;-77
2021/06/03 15:16:19;;;;;;;4.67;2.70;;;;;;;20.04;54.88;95216.06;10402664;28;20028;-77
2021/06/03 15:21:20;;;;;;;6.97;2.80;;;;;;;19.92;56.84;95216.72;10403297;28;20033;-77
2021/06/03 15:26:21;;;;;;;4.45;2.95;;;;;;;19.88;56.63;95224.75;10403187;28;20057;-77
2021/06/03 15:31:23;;;;;;;4.45;2.50;;;;;;;19.73;56.47;95230.63;10402424;28;20515;-77
2021/06/03 15:36:23;;;;;;;6.20;2.35;;;;;;;19.68;57.87;95234.34;10402618;28;20726;-77
2021/06/03 15:41:23;;;;;;;3.63;2.67;;;;;;;19.64;56.31;95236.88;10403030;28;20029;-77
2021/06/03 15:46:24;;;;;;;8.97;3.20;;;;;;;19.40;62.14;95242.00;10402704;28;20038;-77
2021/06/03 15:51:25;;;;;;;4.20;3.05;;;;;;;19.33;64.74;95252.56;10401185;28;20033;-77
2021/06/03 15:56:25;;;;;;;11.25;2.55;;;;;;;19.29;62.17;95252.38;10402353;28;20051;-77
2021/06/03 16:01:26;;;;;;;8.75;2.70;;;;;;;19.39;58.29;95262.97;10402539;28;20029;-78
2021/06/03 16:06:27;;;;;;;12.68;3.03;;;;;;;19.37;63.24;95265.22;10402679;28;20502;-77
2021/06/03 16:11:27;;;;;;;5.40;2.45;;;;;;;19.34;63.64;95270.50;10407857;28;20458;-77
2021/06/03 16:16:28;;;;;;;5.63;2.33;;;;;;;19.34;60.50;95267.75;10410512;28;20488;-76
2021/06/03 16:21:28;;;;;;;6.90;3.43;;;;;;;19.30;60.54;95270.34;10440101;28;20581;-76
2021/06/03 16:26:29;;;;;;;3.72;2.33;;;;;;;19.17;60.67;95282.13;10424681;28;20331;-81
2021/06/03 16:31:35;;;;;;;5.50;2.53;;;;;;;19.15;65.40;95289.84;10442749;28;20029;-80
2021/06/03 16:36:36;;;;;;;3.88;2.38;;;;;;;19.12;63.29;95285.81;10442656;28;20493;-80
2021/06/03 16:41:37;;;;;;;7.83;2.50;;;;;;;19.08;62.64;95293.81;10431416;28;20029;-85
2021/06/03 16:46:38;;;;;;;4.80;2.20;;;;;;;18.98;61.64;95301.44;10445644;28;20493;-82
2021/06/03 16:51:39;;;;;;;5.88;2.60;;;;;;;19.03;62.92;95304.81;10453891;28;20021;-82
2021/06/03 16:56:40;;;;;;;4.90;2.78;;;;;;;18.89;61.73;95309.56;10454588;28;20369;-83
2021/06/03 17:01:40;;;;;;;3.53;2.30;;;;;;;18.67;62.00;95313.91;10454086;28;20025;-82
2021/06/03 17:06:41;;;;;;;3.92;2.65;;;;;;;18.55;62.14;95321.81;10454878;28;20025;-82
2021/06/03 17:11:42;;;;;;;8.87;2.83;;;;;;;18.62;65.21;95322.19;10449658;28;20024;-81
2021/06/03 17:16:47;;;;;;;9.60;2.80;;;;;;;18.65;63.89;95323.50;10445954;28;20108;-82
2021/06/03 17:21:47;;;;;;;12.82;2.97;;;;;;;18.44;65.80;95323.97;10452661;28;20029;-82
2021/06/03 17:26:48;;;;;;;3.40;2.50;;;;;;;18.38;63.59;95333.38;10450741;28;20040;-82
2021/06/03 17:31:48;;;;;;;5.20;2.90;;;;;;;18.40;61.38;95326.50;10452485;28;20036;-82
2021/06/03 17:36:49;;;;;;;17.07;3.20;;;;;;;18.38;66.67;95336.13;10450187;28;20159;-82
2021/06/03 17:41:49;;;;;;;5.80;3.27;;;;;;;18.26;66.84;95326.56;10443891;28;20017;-74
2021/06/03 17:46:49;;;;;;;8.18;4.10;;;;;;;18.15;66.23;95340.72;10441440;28;20825;-74
2021/06/03 17:51:50;;;;;;;4.77;3.20;;;;;;;18.17;65.99;95339.28;10446647;28;20052;-72
2021/06/03 17:56:50;;;;;;;7.40;3.03;;;;;;;18.12;72.53;95344.03;10444470;28;20029;-74
2021/06/03 18:01:51;;;;;;;4.85;3.25;;;;;;;18.04;70.16;95346.38;10442271;28;20025;-73
2021/06/03 18:06:51;;;;;;;5.43;2.70;;;;;;;18.03;73.23;95352.94;10439405;28;20048;-73
2021/06/03 18:11:52;;;;;;;3.97;3.05;;;;;;;18.02;73.42;95355.97;10443859;28;20017;-73
2021/06/03 18:16:54;;;;;;;5.35;3.08;;;;;;;17.97;73.61;95358.78;10439629;28;20025;-73
2021/06/03 18:21:54;;;;;;;5.97;2.97;;;;;;;17.86;72.85;95371.75;10437683;28;20119;-74
2021/06/03 18:26:54;;;;;;;8.67;3.40;;;;;;;17.80;71.35;95379.19;10442026;28;20110;-73
2021/06/03 18:31:55;;;;;;;6.70;3.00;;;;;;;17.80;70.47;95379.19;10439758;28;20396;-74
2021/06/03 18:36:55;;;;;;;13.20;4.15;;;;;;;17.84;68.84;95384.84;10439997;28;20133;-74
2021/06/03 18:41:56;;;;;;;11.03;4.57;;;;;;;17.74;72.13;95386.66;10438064;28;20029;-74
2021/06/03 18:46:56;;;;;;;9.30;3.28;;;;;;;17.54;75.66;95397.94;10440712;28;20786;-74
2021/06/03 18:51:57;;;;;;;6.45;3.70;;;;;;;17.41;76.95;95399.53;10437634;28;20029;-75
2021/06/03 18:56:57;;;;;;;6.50;3.25;;;;;;;17.19;80.27;95406.44;10424994;28;20082;-74
2021/06/03 19:01:58;;;;;;;6.67;3.10;;;;;;;17.15;80.51;95402.72;10434433;28;20031;-74
2021/06/03 19:06:58;;;;;;;6.70;2.75;;;;;;;17.07;81.68;95414.25;10419770;28;20029;-74
2021/06/03 19:11:59;;;;;;;6.65;3.45;;;;;;;17.06;81.81;95420.78;10420668;28;20027;-74
2021/06/03 19:17:00;;;;;;;5.90;2.60;;;;;;;17.13;81.72;95415.78;10444356;28;20432;-74
2021/06/03 19:22:00;;;;;;;9.00;3.17;;;;;;;17.05;81.51;95416.47;10444142;28;20388;-74
2021/06/03 19:27:01;;;;;;;9.77;3.40;;;;;;;17.06;83.75;95420.78;10444497;28;20082;-74
2021/06/03 19:32:02;;;;;;;4.85;3.47;;;;;;;16.91;84.22;95422.66;10425452;28;20512;-75
2021/06/03 19:37:03;;;;;;;11.25;4.28;;;;;;;16.87;83.82;95427.03;10440860;28;20067;-75
2021/06/03 19:42:04;;;;;;;7.80;3.97;;;;;;;16.89;83.46;95426.78;10443685;28;20097;-75
2021/06/03 19:47:04;;;;;;;5.93;3.00;;;;;;;16.94;90.81;95423.16;10443678;28;20473;-75
2021/06/03 19:52:05;;;;;;;7.35;3.95;;;;;;;16.91;92.27;95421.84;10442925;28;20036;-75
2021/06/03 19:57:07;;;;;;;11.38;3.65;;;;;;;16.93;89.31;95422.38;10443107;28;20036;-75
2021/06/03 20:02:07;;;;;;;9.25;3.55;;;;;;;16.89;91.07;95422.13;10441639;28;20035;-75
2021/06/03 20:07:07;;;;;;;7.70;4.00;;;;;;;16.80;88.28;95414.94;10442306;28;20025;-75
2021/06/03 20:12:08;;;;;;;6.23;5.20;;;;;;;16.77;88.94;95424.47;10436735;28;20017;-73
2021/06/03 20:17:09;;;;;;;14.65;4.90;;;;;;;16.53;92.07;95419.94;10400726;28;20021;-75
2021/06/03 20:22:09;;;;;;;5.67;3.80;;;;;;;16.38;89.67;95418.28;10400793;28;20477;-72
2021/06/03 20:27:10;;;;;;;13.00;4.20;;;;;;;16.30;89.86;95409.97;10415935;28;20382;-75
2021/06/03 20:32:10;;;;;;;12.20;3.92;;;;;;;16.21;88.36;95415.25;10441494;28;20274;-75
2021/06/03 20:37:11;;;;;;;11.48;3.95;;;;;;;16.41;95.91;95408.75;10442022;28;20072;-73
2021/06/03 20:42:11;;;;;;;7.43;4.77;;;;;;;16.54;92.67;95408.00;10441533;28;20812;-73
2021/06/03 20:47:11;;;;;;;9.80;4.40;;;;;;;16.48;93.89;95405.66;10440942;28;20274;-73
2021/06/03 20:52:12;;;;;;;9.83;4.10;;;;;;;16.44;93.83;95412.75;10440903;28;20488;-73
2021/06/03 20:57:12;;;;;;;7.90;3.40;;;;;;;16.39;91.20;95408.22;10441481;28;20446;-73
2021/06/03 21:02:13;;;;;;;4.80;3.27;;;;;;;16.49;97.61;95399.13;10442112;28;20835;-73
2021/06/03 21:07:15;;;;;;;6.75;3.90;;;;;;;16.50;97.92;95396.13;10441008;28;20401;-74
2021/06/03 21:12:16;;;;;;;8.63;3.45;;;;;;;16.47;98.45;95404.84;10421629;28;20032;-74
2021/06/03 21:17:16;;;;;;;7.18;3.33;;;;;;;16.27;97.81;95403.25;10400304;28;20029;-74
2021/06/03 21:22:16;;;;;;;5.73;3.67;;;;;;;16.25;96.74;95401.94;10399537;28;20017;-74
2021/06/03 21:27:17;;;;;;;6.73;3.10;;;;;;;16.32;99.50;95402.38;10407238;28;20507;-74
2021/06/03 21:32:19;;;;;;;12.13;3.03;;;;;;;16.36;97.49;95404.19;10421408;28;20287;-74
2021/06/03 21:37:19;;;;;;;5.20;3.22;;;;;;;16.25;97.39;95399.22;10407554;28;20508;-76
2021/06/03 21:42:19;;;;;;;14.83;4.63;;;;;;;16.19;97.04;95393.84;10407812;28;20099;-77
2021/06/03 21:47:20;;;;;;;7.38;3.60;;;;;;;16.13;95.45;95392.31;10406770;28;20863;-76
2021/06/03 21:52:21;;;;;;;10.27;3.95;;;;;;;16.15;98.97;95402.88;10406741;28;20021;-77
2021/06/03 21:57:21;;;;;;;6.78;3.92;;;;;;;16.27;100.00;95399.72;10406862;28;20028;-76
2021/06/03 22:02:21;;;;;;;7.73;3.13;;;;;;;16.27;100.00;95389.69;10406807;28;20570;-76
2021/06/03 22:07:22;;;;;;;8.33;4.90;;;;;;;16.31;100.00;95392.59;10404615;28;20026;-76
2021/06/03 22:12:22;;;;;;;5.57;4.40;;;;;;;16.25;100.00;95394.59;10403961;28;20025;-76
2021/06/03 22:17:22;;;;;;;9.67;6.10;;;;;;;16.15;100.00;95390.09;10401237;28;20025;-76
2021/06/03 22:22:23;;;;;;;7.90;4.27;;;;;;;16.08;100.00;95399.72;10413109;28;20060;-77
2021/06/03 22:27:23;;;;;;;9.35;5.00;;;;;;;15.93;100.00;95401.50;10417409;28;20046;-77
2021/06/03 22:32:24;;;;;;;9.52;4.75;;;;;;;15.96;100.00;95397.41;10405035;28;20034;-77
2021/06/03 22:37:24;;;;;;;8.73;4.77;;;;;;;15.86;100.00;95385.59;10404820;28;20022;-77
2021/06/03 22:42:25;;;;;;;15.63;5.10;;;;;;;15.88;100.00;95388.84;10402452;28;20354;-77
2021/06/03 22:47:28;;;;;;;12.18;5.38;;;;;;;15.84;100.00;95387.81;10403988;28;20033;-76
2021/06/03 22:52:29;;;;;;;7.78;5.25;;;;;;;15.78;100.00;95397.06;10402069;28;20040;-77
2021/06/03 22:57:29;;;;;;;11.45;5.25;;;;;;;15.66;100.00;95399.38;10403736;28;20029;-76
2021/06/03 23:02:31;;;;;;;5.32;3.65;;;;;;;15.51;100.00;95400.34;10403255;28;20035;-76
2021/06/03 23:07:31;;;;;;;6.03;3.47;;;;;;;15.25;100.00;95388.97;10401254;28;20025;-77
2021/06/03 23:12:33;;;;;;;7.10;3.93;;;;;;;15.18;100.00;95381.19;10401586;28;20022;-77
2021/06/03 23:17:33;;;;;;;4.70;3.42;;;;;;;15.08;100.00;95384.81;10402011;28;20481;-77